Terminal Aerodrome Forecast
Issued by NWS Columbia, SC

Home | Current Version | Previous Version | Text Only | Print | Product List | Glossary On
Versions: 1 2 3 4 5 6 7 8 9 10 11 12 13 14 15 16 17 18 19 20 21 22 23 24 25 26 27 28 29 30 31 32 33 34 35 36 37 38 39 40 41 42 43 44 45 46 47 48 49
153
FTUS42 KCAE 201922 AAA
TAFAGS
TAF AMD
KAGS 201922Z 2019/2118 VRB05KT P6SM VCTS SCT030CB BKN120
     FM202000 VRB05KT P6SM VCSH BKN060
      TEMPO 2020/2022 5SM -SHRA BR BKN040
     FM210100 VRB03KT P6SM SCT030 BKN100
     FM211000 00000KT 2SM BR OVC008
     FM211400 VRB03KT P6SM OVC030=

USA.gov is the U.S. government's official web portal to all federal, state and local government web resources and services.